Swift Ace — C6XB8 — position and weather

sailwx.info

Track history (hours):
 
Tides and Currents Weather Stations Pressure Air Temp Water Temp Dewpoint Dewpoint Depression Visibility Wind Speed Wind Dir Waves Ship Positions

Swift Ace

Last reported at 2014-Sep-15 08:03 UTC. Time now 2014-Sep-17 11:29 UTC.
Position N 35°34' W 128°19'.

Length 200 m; draft 7.9 m.

Type: Cargo ship. MMSI: 311004900.

Date/timePositionNaut miles runAvg speedWind from/ knotsBaromVisibWave heightAir tempDewpointWater temp
2014-Sep-15 08:03N 35°34' W 128°19'4718.3
2014-Sep-15 05:29N 35°10' W 127°30'2517.9
2014-Sep-15 04:05N 34°57' W 127°03'918.1
2014-Sep-15 03:33N 34°52' W 126°53'1818.0
2014-Sep-15 02:33N 34°43' W 126°34'3618.1
2014-Sep-15 00:33N 34°25' W 125°57'1818.2
2014-Sep-14 23:33N 34°15' W 125°38'1918.1
2014-Sep-14 22:31N 34°05' W 125°18'1717.9
2014-Sep-14 21:33N 33°57' W 125°01'2317.8
2014-Sep-14 20:15N 33°45' W 124°36'1217.5
2014-Sep-14 19:33N 33°40' W 124°23'1817.5
2014-Sep-14 18:33N 33°39' W 124°02'1817.6
2014-Sep-14 17:33N 33°38' W 123°41'1717.5
2014-Sep-14 16:33N 33°37' W 123°20'1919.0
2014-Sep-14 15:33N 33°36' W 122°57'1817.6
2014-Sep-14 14:33N 33°35' W 122°36'1717.5
2014-Sep-14 13:34N 33°34' W 122°15'1717.3
2014-Sep-14 12:33N 33°33' W 121°54'1817.6
2014-Sep-14 11:33N 33°32' W 121°33'1818.0
2014-Sep-14 10:33N 33°32' W 121°12'1818.3
2014-Sep-14 09:34N 33°31' W 120°50'1818.0
2014-Sep-14 08:34N 33°30' W 120°28'1717.4
2014-Sep-14 07:33N 33°29' W 120°07'1817.8
2014-Sep-14 06:34N 33°32' W 119°46'1817.8
2014-Sep-14 05:33N 33°34' W 119°25'1717.0
2014-Sep-14 04:33N 33°37' W 119°05'1211.9
2014-Sep-14 03:33N 33°37' W 118°51'1211.9
2014-Sep-14 02:33N 33°37' W 118°36'1211.8
2014-Sep-14 01:34N 33°37' W 118°22'11 2.7
2014-Sep-13 21:32N 33°46' W 118°15'0 0.0
2014-Sep-13 20:32N 33°46' W 118°15'0 0.0
2014-Sep-13 19:32N 33°46' W 118°15'0 0.0
2014-Sep-13 18:32N 33°46' W 118°15'0 0.0
2014-Sep-13 17:32N 33°46' W 118°15'0 0.0
2014-Sep-13 16:32N 33°46' W 118°15'0 0.0
2014-Sep-13 15:32N 33°46' W 118°15'0 0.0
2014-Sep-13 14:32N 33°46' W 118°15'0 0.0
2014-Sep-13 13:32N 33°46' W 118°15'0 0.0
2014-Sep-13 12:32N 33°46' W 118°15'0 0.0
2014-Sep-13 11:32N 33°46' W 118°15'0 0.0
2014-Sep-13 10:32N 33°46' W 118°15'0 0.0
2014-Sep-13 09:32N 33°46' W 118°15'0 0.0
2014-Sep-13 08:32N 33°46' W 118°15'0 0.0
2014-Sep-13 07:32N 33°46' W 118°15'0 0.0
2014-Sep-13 06:32N 33°46' W 118°15'0 0.0
2014-Sep-13 05:32N 33°46' W 118°15'0 0.0
2014-Sep-13 04:32N 33°46' W 118°15'0 0.0
2014-Sep-13 03:32N 33°46' W 118°15'0 0.0
2014-Sep-13 02:32N 33°46' W 118°15'0 0.0
2014-Sep-13 01:32N 33°46' W 118°15'0 0.0
2014-Sep-13 00:32N 33°46' W 118°15'0 0.0
2014-Sep-12 23:32N 33°46' W 118°15'0 0.0
2014-Sep-12 22:32N 33°46' W 118°15'0 0.0
2014-Sep-12 21:32N 33°46' W 118°15'0 0.0
2014-Sep-12 20:32N 33°46' W 118°15'0 0.0
2014-Sep-12 19:32N 33°46' W 118°15'0 0.0
2014-Sep-12 18:32N 33°46' W 118°15'0 0.0
2014-Sep-12 17:32N 33°46' W 118°15'0 0.0
2014-Sep-12 16:32N 33°46' W 118°15'0 0.0
2014-Sep-12 15:32N 33°46' W 118°15'0 0.0
2014-Sep-12 14:32N 33°46' W 118°15'0 0.0
2014-Sep-12 13:32N 33°46' W 118°15'0 0.0
2014-Sep-12 12:32N 33°46' W 118°15'1 0.9
2014-Sep-12 11:34N 33°45' W 118°16'7 6.5
2014-Sep-12 10:34N 33°39' W 118°13'8 7.7
2014-Sep-12 09:34N 33°37' W 118°22'10 9.9
2014-Sep-12 08:34N 33°42' W 118°32'1010.0
2014-Sep-12 07:33N 33°47' W 118°43'1010.0
2014-Sep-12 06:33N 33°52' W 118°53'10 9.8
2014-Sep-12 05:34N 33°56' W 119°04'1010.0
2014-Sep-12 04:34N 34°01' W 119°14'10 9.9
2014-Sep-12 03:34N 34°04' W 119°26'1010.0
2014-Sep-12 02:34N 34°07' W 119°37'1010.0
2014-Sep-12 01:34N 34°10' W 119°49'1010.0
2014-Sep-12 00:33N 34°13' W 120°00'1010.0
2014-Sep-11 23:33N 34°15' W 120°12'1010.2
2014-Sep-11 22:34N 34°18' W 120°24'1010.0
2014-Sep-11 21:34N 34°20' W 120°36'1514.9
2014-Sep-11 20:33N 34°24' W 120°53'1515.0
2014-Sep-11 19:33N 34°31' W 121°10'1515.2
2014-Sep-11 18:33N 34°43' W 121°20'1515.1
2014-Sep-11 17:33N 34°55' W 121°31'1615.6
2014-Sep-11 16:33N 35°08' W 121°42'1716.9
2014-Sep-11 15:33N 35°22' W 121°53'1717.0
2014-Sep-11 14:33N 35°36' W 122°05'1716.6
2014-Sep-11 13:33N 35°50' W 122°16'1716.8
2014-Sep-11 12:33N 36°04' W 122°28'1616.5
2014-Sep-11 11:33N 36°18' W 122°39'1616.1
2014-Sep-11 10:33N 36°31' W 122°51'1616.1
2014-Sep-11 09:33N 36°44' W 123°02'1615.8
2014-Sep-11 08:33N 36°57' W 123°13'1615.8
2014-Sep-11 07:33N 37°10' W 123°24'1616.0
2014-Sep-11 06:33N 37°23' W 123°35'1616.0
2014-Sep-11 05:33N 37°37' W 123°47'1616.1
2014-Sep-11 04:33N 37°50' W 123°58'1616.4
2014-Sep-11 03:33N 38°05' W 124°07'1716.6
2014-Sep-11 02:33N 38°20' W 124°16'1716.6
2014-Sep-11 01:33N 38°35' W 124°24'1716.6
2014-Sep-11 00:33N 38°51' W 124°32'1716.8
2014-Sep-10 23:33N 39°06' W 124°42'1717.1
2014-Sep-10 22:33N 39°22' W 124°49'3316.6
2014-Sep-10 20:33N 39°53' W 125°06'3515.9
2014-Sep-10 18:22N 40°27' W 125°11'1416.6
2014-Sep-10 17:30N 40°42' W 125°11'1616.6
2014-Sep-10 16:33N 40°57' W 125°11'40016.5
2014-Sep-09 16:19N 47°38' W 125°20'1716.6
2014-Sep-09 15:16N 47°55' W 125°18'1417.7
2014-Sep-09 14:28N 48°09' W 125°14'1617.6
2014-Sep-09 13:33N 48°24' W 125°07'1515.2
2014-Sep-09 12:33N 48°31' W 124°46'1818.2
2014-Sep-09 11:33N 48°25' W 124°20'1716.9
2014-Sep-09 10:33N 48°18' W 123°57'1616.4
2014-Sep-09 09:33N 48°16' W 123°33'1111.0
2014-Sep-09 08:34N 48°23' W 123°20'1414.1
2014-Sep-09 07:34N 48°36' W 123°14'1615.7
2014-Sep-09 06:34N 48°50' W 123°02'1818.3
2014-Sep-09 05:34N 49°03' W 123°20'9 8.8
2014-Sep-09 04:33N 49°06' W 123°08'9 9.1
2014-Sep-09 03:33N 49°11' W 122°55'0 0.1
2014-Sep-09 02:30N 49°11' W 122°55'0 0.0
2014-Sep-09 01:33N 49°11' W 122°55'0 0.0
2014-Sep-09 00:33N 49°11' W 122°55'0 0.0
2014-Sep-08 23:33N 49°11' W 122°55'0 0.0
2014-Sep-08 22:33N 49°11' W 122°55'3 3.5
2014-Sep-08 21:33N 49°09' W 123°00'8 8.0
2014-Sep-08 20:33N 49°07' W 123°12'7 6.6
2014-Sep-08 19:33N 49°05' W 123°21'1615.9
2014-Sep-08 18:33N 48°53' W 123°04'1312.6
2014-Sep-08 17:33N 48°42' W 123°14'1616.1
2014-Sep-08 16:33N 48°26' W 123°10'1010.3
2014-Sep-08 15:33N 48°20' W 123°22'1 0.5
2014-Sep-08 14:28N 48°20' W 123°22'0 0.0
2014-Sep-08 13:28N 48°20' W 123°22'0 0.1
2014-Sep-08 12:31N 48°20' W 123°22'0 0.1
2014-Sep-08 11:31N 48°20' W 123°21'0 0.0
2014-Sep-08 10:31N 48°20' W 123°21'0 0.0
2014-Sep-08 09:28N 48°20' W 123°21'0 0.0
2014-Sep-08 08:31N 48°20' W 123°21'0 0.1
2014-Sep-08 07:31N 48°20' W 123°22'0 0.0
2014-Sep-08 06:31N 48°20' W 123°22'4 4.1
2014-Sep-08 05:33N 48°17' W 123°25'9 8.9
2014-Sep-08 04:33N 48°10' W 123°18'1918.6
2014-Sep-08 03:33N 48°12' W 122°51'2020.3
2014-Sep-08 02:33N 47°56' W 122°31'1919.0
2014-Sep-08 01:34N 47°38' W 122°27'1717.0
2014-Sep-08 00:33N 47°21' W 122°25'5 4.3
2014-Sep-07 23:22N 47°16' W 122°23'0 0.0
2014-Sep-07 19:28N 47°16' W 122°23'0 0.0
2014-Sep-07 18:28N 47°16' W 122°23'0 0.0
2014-Sep-07 17:28N 47°16' W 122°23'0 0.0
2014-Sep-07 16:28N 47°16' W 122°23'0 0.0
2014-Sep-07 13:10N 47°16' W 122°23'0 0.4
2014-Sep-07 12:33N 47°15' W 122°23'5 4.6
2014-Sep-07 11:34N 47°18' W 122°28'1413.7
2014-Sep-07 10:34N 47°32' W 122°27'1918.8
2014-Sep-07 09:33N 47°51' W 122°28'1919.2
2014-Sep-07 08:33N 48°08' W 122°42'1919.0
2014-Sep-07 07:33N 48°12' W 123°10'1212.2
2014-Sep-07 06:33N 48°12' W 123°28'1616.4
2014-Sep-07 05:33N 48°13' W 123°53'1716.8
2014-Sep-07 04:33N 48°20' W 124°16'1616.4
2014-Sep-07 03:33N 48°27' W 124°38'1515.0
2014-Sep-07 02:33N 48°28' W 125°01'1616.1
2014-Sep-07 01:33N 48°29' W 125°25'1616.3
2014-Sep-07 00:33N 48°29' W 125°50'1716.7
2014-Sep-06 23:33N 48°29' W 126°15'1816.9
2014-Sep-06 22:31N 48°29' W 126°41'1717.3
2014-Sep-06 21:32N 48°29' W 127°07'1717.1
2014-Sep-06 20:32N 48°30' W 127°33'  
Track history (hours):
 
Tides and Currents Weather Stations Pressure Air Temp Water Temp Dewpoint Dewpoint Depression Visibility Wind Speed Wind Dir Waves Ship Positions

Swift Ace

Last reported at 2014-Sep-15 08:03 UTC. Time now 2014-Sep-17 11:29 UTC.
Position N 35°34' W 128°19'.

Length 200 m; draft 7.9 m.

Type: Cargo ship. MMSI: 311004900.

Date/timePositionNaut miles runAvg speedWind from/ knotsBaromVisibWave heightAir tempDewpointWater temp
2014-Sep-15 08:03N 35°34' W 128°19'4718.3
2014-Sep-15 05:29N 35°10' W 127°30'2517.9
2014-Sep-15 04:05N 34°57' W 127°03'918.1
2014-Sep-15 03:33N 34°52' W 126°53'1818.0
2014-Sep-15 02:33N 34°43' W 126°34'3618.1
2014-Sep-15 00:33N 34°25' W 125°57'1818.2
2014-Sep-14 23:33N 34°15' W 125°38'1918.1
2014-Sep-14 22:31N 34°05' W 125°18'1717.9
2014-Sep-14 21:33N 33°57' W 125°01'2317.8
2014-Sep-14 20:15N 33°45' W 124°36'1217.5
2014-Sep-14 19:33N 33°40' W 124°23'1817.5
2014-Sep-14 18:33N 33°39' W 124°02'1817.6
2014-Sep-14 17:33N 33°38' W 123°41'1717.5
2014-Sep-14 16:33N 33°37' W 123°20'1919.0
2014-Sep-14 15:33N 33°36' W 122°57'1817.6
2014-Sep-14 14:33N 33°35' W 122°36'1717.5
2014-Sep-14 13:34N 33°34' W 122°15'1717.3
2014-Sep-14 12:33N 33°33' W 121°54'1817.6
2014-Sep-14 11:33N 33°32' W 121°33'1818.0
2014-Sep-14 10:33N 33°32' W 121°12'1818.3
2014-Sep-14 09:34N 33°31' W 120°50'1818.0
2014-Sep-14 08:34N 33°30' W 120°28'1717.4
2014-Sep-14 07:33N 33°29' W 120°07'1817.8
2014-Sep-14 06:34N 33°32' W 119°46'1817.8
2014-Sep-14 05:33N 33°34' W 119°25'1717.0
2014-Sep-14 04:33N 33°37' W 119°05'1211.9
2014-Sep-14 03:33N 33°37' W 118°51'1211.9
2014-Sep-14 02:33N 33°37' W 118°36'1211.8
2014-Sep-14 01:34N 33°37' W 118°22'11 2.7
2014-Sep-13 21:32N 33°46' W 118°15'0 0.0
2014-Sep-13 20:32N 33°46' W 118°15'0 0.0
2014-Sep-13 19:32N 33°46' W 118°15'0 0.0
2014-Sep-13 18:32N 33°46' W 118°15'0 0.0
2014-Sep-13 17:32N 33°46' W 118°15'0 0.0
2014-Sep-13 16:32N 33°46' W 118°15'0 0.0
2014-Sep-13 15:32N 33°46' W 118°15'0 0.0
2014-Sep-13 14:32N 33°46' W 118°15'0 0.0
2014-Sep-13 13:32N 33°46' W 118°15'0 0.0
2014-Sep-13 12:32N 33°46' W 118°15'0 0.0
2014-Sep-13 11:32N 33°46' W 118°15'0 0.0
2014-Sep-13 10:32N 33°46' W 118°15'0 0.0
2014-Sep-13 09:32N 33°46' W 118°15'0 0.0
2014-Sep-13 08:32N 33°46' W 118°15'0 0.0
2014-Sep-13 07:32N 33°46' W 118°15'0 0.0
2014-Sep-13 06:32N 33°46' W 118°15'0 0.0
2014-Sep-13 05:32N 33°46' W 118°15'0 0.0
2014-Sep-13 04:32N 33°46' W 118°15'0 0.0
2014-Sep-13 03:32N 33°46' W 118°15'0 0.0
2014-Sep-13 02:32N 33°46' W 118°15'0 0.0
2014-Sep-13 01:32N 33°46' W 118°15'0 0.0
2014-Sep-13 00:32N 33°46' W 118°15'0 0.0
2014-Sep-12 23:32N 33°46' W 118°15'0 0.0
2014-Sep-12 22:32N 33°46' W 118°15'0 0.0
2014-Sep-12 21:32N 33°46' W 118°15'0 0.0
2014-Sep-12 20:32N 33°46' W 118°15'0 0.0
2014-Sep-12 19:32N 33°46' W 118°15'0 0.0
2014-Sep-12 18:32N 33°46' W 118°15'0 0.0
2014-Sep-12 17:32N 33°46' W 118°15'0 0.0
2014-Sep-12 16:32N 33°46' W 118°15'0 0.0
2014-Sep-12 15:32N 33°46' W 118°15'0 0.0
2014-Sep-12 14:32N 33°46' W 118°15'0 0.0
2014-Sep-12 13:32N 33°46' W 118°15'0 0.0
2014-Sep-12 12:32N 33°46' W 118°15'1 0.9
2014-Sep-12 11:34N 33°45' W 118°16'7 6.5
2014-Sep-12 10:34N 33°39' W 118°13'8 7.7
2014-Sep-12 09:34N 33°37' W 118°22'10 9.9
2014-Sep-12 08:34N 33°42' W 118°32'1010.0
2014-Sep-12 07:33N 33°47' W 118°43'1010.0
2014-Sep-12 06:33N 33°52' W 118°53'10 9.8
2014-Sep-12 05:34N 33°56' W 119°04'1010.0
2014-Sep-12 04:34N 34°01' W 119°14'10 9.9
2014-Sep-12 03:34N 34°04' W 119°26'1010.0
2014-Sep-12 02:34N 34°07' W 119°37'1010.0
2014-Sep-12 01:34N 34°10' W 119°49'1010.0
2014-Sep-12 00:33N 34°13' W 120°00'1010.0
2014-Sep-11 23:33N 34°15' W 120°12'1010.2
2014-Sep-11 22:34N 34°18' W 120°24'1010.0
2014-Sep-11 21:34N 34°20' W 120°36'1514.9
2014-Sep-11 20:33N 34°24' W 120°53'1515.0
2014-Sep-11 19:33N 34°31' W 121°10'1515.2
2014-Sep-11 18:33N 34°43' W 121°20'1515.1
2014-Sep-11 17:33N 34°55' W 121°31'1615.6
2014-Sep-11 16:33N 35°08' W 121°42'1716.9
2014-Sep-11 15:33N 35°22' W 121°53'1717.0
2014-Sep-11 14:33N 35°36' W 122°05'1716.6
2014-Sep-11 13:33N 35°50' W 122°16'1716.8
2014-Sep-11 12:33N 36°04' W 122°28'1616.5
2014-Sep-11 11:33N 36°18' W 122°39'1616.1
2014-Sep-11 10:33N 36°31' W 122°51'1616.1
2014-Sep-11 09:33N 36°44' W 123°02'1615.8
2014-Sep-11 08:33N 36°57' W 123°13'1615.8
2014-Sep-11 07:33N 37°10' W 123°24'1616.0
2014-Sep-11 06:33N 37°23' W 123°35'1616.0
2014-Sep-11 05:33N 37°37' W 123°47'1616.1
2014-Sep-11 04:33N 37°50' W 123°58'1616.4
2014-Sep-11 03:33N 38°05' W 124°07'1716.6
2014-Sep-11 02:33N 38°20' W 124°16'1716.6
2014-Sep-11 01:33N 38°35' W 124°24'1716.6
2014-Sep-11 00:33N 38°51' W 124°32'1716.8
2014-Sep-10 23:33N 39°06' W 124°42'1717.1
2014-Sep-10 22:33N 39°22' W 124°49'3316.6
2014-Sep-10 20:33N 39°53' W 125°06'3515.9
2014-Sep-10 18:22N 40°27' W 125°11'1416.6
2014-Sep-10 17:30N 40°42' W 125°11'1616.6
2014-Sep-10 16:33N 40°57' W 125°11'40016.5
2014-Sep-09 16:19N 47°38' W 125°20'1716.6
2014-Sep-09 15:16N 47°55' W 125°18'1417.7
2014-Sep-09 14:28N 48°09' W 125°14'1617.6
2014-Sep-09 13:33N 48°24' W 125°07'1515.2
2014-Sep-09 12:33N 48°31' W 124°46'1818.2
2014-Sep-09 11:33N 48°25' W 124°20'1716.9
2014-Sep-09 10:33N 48°18' W 123°57'1616.4
2014-Sep-09 09:33N 48°16' W 123°33'1111.0
2014-Sep-09 08:34N 48°23' W 123°20'1414.1
2014-Sep-09 07:34N 48°36' W 123°14'1615.7
2014-Sep-09 06:34N 48°50' W 123°02'1818.3
2014-Sep-09 05:34N 49°03' W 123°20'9 8.8
2014-Sep-09 04:33N 49°06' W 123°08'9 9.1
2014-Sep-09 03:33N 49°11' W 122°55'0 0.1
2014-Sep-09 02:30N 49°11' W 122°55'0 0.0
2014-Sep-09 01:33N 49°11' W 122°55'0 0.0
2014-Sep-09 00:33N 49°11' W 122°55'0 0.0
2014-Sep-08 23:33N 49°11' W 122°55'0 0.0
2014-Sep-08 22:33N 49°11' W 122°55'3 3.5
2014-Sep-08 21:33N 49°09' W 123°00'8 8.0
2014-Sep-08 20:33N 49°07' W 123°12'7 6.6
2014-Sep-08 19:33N 49°05' W 123°21'1615.9
2014-Sep-08 18:33N 48°53' W 123°04'1312.6
2014-Sep-08 17:33N 48°42' W 123°14'1616.1
2014-Sep-08 16:33N 48°26' W 123°10'1010.3
2014-Sep-08 15:33N 48°20' W 123°22'1 0.5
2014-Sep-08 14:28N 48°20' W 123°22'0 0.0
2014-Sep-08 13:28N 48°20' W 123°22'0 0.1
2014-Sep-08 12:31N 48°20' W 123°22'0 0.1
2014-Sep-08 11:31N 48°20' W 123°21'0 0.0
2014-Sep-08 10:31N 48°20' W 123°21'0 0.0
2014-Sep-08 09:28N 48°20' W 123°21'0 0.0
2014-Sep-08 08:31N 48°20' W 123°21'0 0.1
2014-Sep-08 07:31N 48°20' W 123°22'0 0.0
2014-Sep-08 06:31N 48°20' W 123°22'4 4.1
2014-Sep-08 05:33N 48°17' W 123°25'9 8.9
2014-Sep-08 04:33N 48°10' W 123°18'1918.6
2014-Sep-08 03:33N 48°12' W 122°51'2020.3
2014-Sep-08 02:33N 47°56' W 122°31'1919.0
2014-Sep-08 01:34N 47°38' W 122°27'1717.0
2014-Sep-08 00:33N 47°21' W 122°25'5 4.3
2014-Sep-07 23:22N 47°16' W 122°23'0 0.0
2014-Sep-07 19:28N 47°16' W 122°23'0 0.0
2014-Sep-07 18:28N 47°16' W 122°23'0 0.0
2014-Sep-07 17:28N 47°16' W 122°23'0 0.0
2014-Sep-07 16:28N 47°16' W 122°23'0 0.0
2014-Sep-07 13:10N 47°16' W 122°23'0 0.4
2014-Sep-07 12:33N 47°15' W 122°23'5 4.6
2014-Sep-07 11:34N 47°18' W 122°28'1413.7
2014-Sep-07 10:34N 47°32' W 122°27'1918.8
2014-Sep-07 09:33N 47°51' W 122°28'1919.2
2014-Sep-07 08:33N 48°08' W 122°42'1919.0
2014-Sep-07 07:33N 48°12' W 123°10'1212.2
2014-Sep-07 06:33N 48°12' W 123°28'1616.4
2014-Sep-07 05:33N 48°13' W 123°53'1716.8
2014-Sep-07 04:33N 48°20' W 124°16'1616.4
2014-Sep-07 03:33N 48°27' W 124°38'1515.0
2014-Sep-07 02:33N 48°28' W 125°01'1616.1
2014-Sep-07 01:33N 48°29' W 125°25'1616.3
2014-Sep-07 00:33N 48°29' W 125°50'1716.7
2014-Sep-06 23:33N 48°29' W 126°15'1816.9
2014-Sep-06 22:31N 48°29' W 126°41'1717.3
2014-Sep-06 21:32N 48°29' W 127°07'1717.1
2014-Sep-06 20:32N 48°30' W 127°33'  

Dump ship's entire track history